sensor_id;sensor_type;location;lat;lon;timestamp;P1;durP1;ratioP1;P2;durP2;ratioP2
23596;SDS011;40226;50.874;4.394;2022-08-25T00:01:44;11.23;;;8.48;;
23596;SDS011;40226;50.874;4.394;2022-08-25T00:04:13;10.63;;;8.27;;
23596;SDS011;40226;50.874;4.394;2022-08-25T00:06:41;9.63;;;8.48;;
23596;SDS011;40226;50.874;4.394;2022-08-25T00:09:09;11.32;;;8.55;;
23596;SDS011;40226;50.874;4.394;2022-08-25T00:11:36;15.30;;;8.35;;
23596;SDS011;40226;50.874;4.394;2022-08-25T00:14:05;13.63;;;8.57;;
23596;SDS011;40226;50.874;4.394;2022-08-25T00:16:34;15.05;;;8.88;;
23596;SDS011;40226;50.874;4.394;2022-08-25T00:19:01;11.27;;;9.18;;
23596;SDS011;40226;50.874;4.394;2022-08-25T00:21:32;15.05;;;9.00;;
23596;SDS011;40226;50.874;4.394;2022-08-25T00:23:59;14.77;;;9.23;;
23596;SDS011;40226;50.874;4.394;2022-08-25T00:26:26;12.75;;;8.80;;
23596;SDS011;40226;50.874;4.394;2022-08-25T00:28:52;13.13;;;9.02;;
23596;SDS011;40226;50.874;4.394;2022-08-25T00:31:19;19.33;;;9.85;;
23596;SDS011;40226;50.874;4.394;2022-08-25T00:33:47;20.80;;;10.02;;
23596;SDS011;40226;50.874;4.394;2022-08-25T00:36:14;17.20;;;9.10;;
23596;SDS011;40226;50.874;4.394;2022-08-25T00:38:43;15.73;;;9.80;;
23596;SDS011;40226;50.874;4.394;2022-08-25T00:41:10;11.32;;;9.20;;
23596;SDS011;40226;50.874;4.394;2022-08-25T00:46:12;12.75;;;9.70;;
23596;SDS011;40226;50.874;4.394;2022-08-25T00:48:40;12.15;;;9.48;;
23596;SDS011;40226;50.874;4.394;2022-08-25T00:51:08;12.85;;;9.20;;
23596;SDS011;40226;50.874;4.394;2022-08-25T00:53:36;12.27;;;9.63;;
23596;SDS011;40226;50.874;4.394;2022-08-25T00:56:02;12.40;;;9.43;;
23596;SDS011;40226;50.874;4.394;2022-08-25T00:58:29;13.30;;;9.38;;
23596;SDS011;40226;50.874;4.394;2022-08-25T01:00:57;14.43;;;10.55;;
23596;SDS011;40226;50.874;4.394;2022-08-25T01:03:24;13.95;;;11.13;;
23596;SDS011;40226;50.874;4.394;2022-08-25T01:05:52;15.68;;;10.43;;
23596;SDS011;40226;50.874;4.394;2022-08-25T01:08:19;12.70;;;10.13;;
23596;SDS011;40226;50.874;4.394;2022-08-25T01:10:53;11.60;;;10.38;;
23596;SDS011;40226;50.874;4.394;2022-08-25T01:13:34;13.23;;;10.60;;
23596;SDS011;40226;50.874;4.394;2022-08-25T01:16:09;15.32;;;10.82;;
23596;SDS011;40226;50.874;4.394;2022-08-25T01:21:08;11.90;;;10.57;;
23596;SDS011;40226;50.874;4.394;2022-08-25T01:23:33;13.32;;;10.98;;
23596;SDS011;40226;50.874;4.394;2022-08-25T01:26:04;14.43;;;11.43;;
23596;SDS011;40226;50.874;4.394;2022-08-25T01:28:33;16.67;;;11.05;;
23596;SDS011;40226;50.874;4.394;2022-08-25T01:30:59;14.25;;;11.02;;
23596;SDS011;40226;50.874;4.394;2022-08-25T01:33:25;12.82;;;10.77;;
23596;SDS011;40226;50.874;4.394;2022-08-25T01:35:50;15.52;;;10.65;;
23596;SDS011;40226;50.874;4.394;2022-08-25T01:38:16;15.27;;;10.60;;
23596;SDS011;40226;50.874;4.394;2022-08-25T01:40:42;15.35;;;10.90;;
23596;SDS011;40226;50.874;4.394;2022-08-25T01:45:41;13.75;;;10.65;;
23596;SDS011;40226;50.874;4.394;2022-08-25T01:48:09;12.07;;;10.88;;
23596;SDS011;40226;50.874;4.394;2022-08-25T01:50:36;15.25;;;11.32;;
23596;SDS011;40226;50.874;4.394;2022-08-25T01:53:05;15.02;;;11.60;;
23596;SDS011;40226;50.874;4.394;2022-08-25T01:55:42;15.80;;;11.20;;
23596;SDS011;40226;50.874;4.394;2022-08-25T01:58:23;17.08;;;11.45;;
23596;SDS011;40226;50.874;4.394;2022-08-25T02:00:52;14.85;;;12.27;;
23596;SDS011;40226;50.874;4.394;2022-08-25T02:03:21;13.77;;;12.15;;
23596;SDS011;40226;50.874;4.394;2022-08-25T02:05:47;14.77;;;12.38;;
23596;SDS011;40226;50.874;4.394;2022-08-25T02:08:13;18.38;;;12.70;;
23596;SDS011;40226;50.874;4.394;2022-08-25T02:10:39;14.40;;;12.63;;
23596;SDS011;40226;50.874;4.394;2022-08-25T02:13:05;20.17;;;12.57;;
23596;SDS011;40226;50.874;4.394;2022-08-25T02:15:31;14.50;;;12.88;;
23596;SDS011;40226;50.874;4.394;2022-08-25T02:17:57;16.33;;;12.90;;
23596;SDS011;40226;50.874;4.394;2022-08-25T02:20:23;17.80;;;13.68;;
23596;SDS011;40226;50.874;4.394;2022-08-25T02:22:50;17.38;;;14.10;;
23596;SDS011;40226;50.874;4.394;2022-08-25T02:25:17;15.63;;;13.90;;
23596;SDS011;40226;50.874;4.394;2022-08-25T02:27:44;17.00;;;13.85;;
23596;SDS011;40226;50.874;4.394;2022-08-25T02:30:11;19.42;;;14.02;;
23596;SDS011;40226;50.874;4.394;2022-08-25T02:32:38;16.65;;;14.77;;
23596;SDS011;40226;50.874;4.394;2022-08-25T02:35:05;14.55;;;13.07;;
23596;SDS011;40226;50.874;4.394;2022-08-25T02:37:31;16.38;;;13.52;;
23596;SDS011;40226;50.874;4.394;2022-08-25T02:39:57;18.02;;;14.32;;
23596;SDS011;40226;50.874;4.394;2022-08-25T02:42:24;15.25;;;13.63;;
23596;SDS011;40226;50.874;4.394;2022-08-25T02:44:49;16.30;;;14.32;;
23596;SDS011;40226;50.874;4.394;2022-08-25T02:47:16;17.75;;;14.15;;
23596;SDS011;40226;50.874;4.394;2022-08-25T02:49:41;16.67;;;14.45;;
23596;SDS011;40226;50.874;4.394;2022-08-25T02:52:07;16.10;;;14.45;;
23596;SDS011;40226;50.874;4.394;2022-08-25T02:54:33;19.00;;;13.98;;
23596;SDS011;40226;50.874;4.394;2022-08-25T02:56:59;15.45;;;13.77;;
23596;SDS011;40226;50.874;4.394;2022-08-25T02:59:24;18.00;;;13.30;;
23596;SDS011;40226;50.874;4.394;2022-08-25T03:01:51;15.70;;;12.90;;
23596;SDS011;40226;50.874;4.394;2022-08-25T03:04:16;14.25;;;12.75;;
23596;SDS011;40226;50.874;4.394;2022-08-25T03:06:42;17.17;;;13.32;;
23596;SDS011;40226;50.874;4.394;2022-08-25T03:09:08;18.70;;;12.98;;
23596;SDS011;40226;50.874;4.394;2022-08-25T03:11:33;16.60;;;13.15;;
23596;SDS011;40226;50.874;4.394;2022-08-25T03:13:59;14.70;;;12.10;;
23596;SDS011;40226;50.874;4.394;2022-08-25T03:16:25;15.35;;;11.77;;
23596;SDS011;40226;50.874;4.394;2022-08-25T03:18:51;13.65;;;12.15;;
23596;SDS011;40226;50.874;4.394;2022-08-25T03:21:17;14.70;;;11.60;;
23596;SDS011;40226;50.874;4.394;2022-08-25T03:23:43;15.93;;;10.20;;
23596;SDS011;40226;50.874;4.394;2022-08-25T03:26:09;11.98;;;9.65;;
23596;SDS011;40226;50.874;4.394;2022-08-25T03:28:54;15.13;;;9.48;;
23596;SDS011;40226;50.874;4.394;2022-08-25T03:31:20;15.45;;;9.30;;
23596;SDS011;40226;50.874;4.394;2022-08-25T03:33:46;10.88;;;9.43;;
23596;SDS011;40226;50.874;4.394;2022-08-25T03:36:13;14.15;;;9.60;;
23596;SDS011;40226;50.874;4.394;2022-08-25T03:38:38;9.80;;;8.30;;
23596;SDS011;40226;50.874;4.394;2022-08-25T03:41:11;15.10;;;8.77;;
23596;SDS011;40226;50.874;4.394;2022-08-25T03:43:39;12.43;;;8.57;;
23596;SDS011;40226;50.874;4.394;2022-08-25T03:46:05;9.75;;;7.38;;
23596;SDS011;40226;50.874;4.394;2022-08-25T03:48:31;9.55;;;7.57;;
23596;SDS011;40226;50.874;4.394;2022-08-25T03:50:57;12.02;;;7.60;;
23596;SDS011;40226;50.874;4.394;2022-08-25T03:53:23;14.75;;;7.65;;
23596;SDS011;40226;50.874;4.394;2022-08-25T03:55:49;11.35;;;8.00;;
23596;SDS011;40226;50.874;4.394;2022-08-25T03:58:14;10.70;;;7.25;;
23596;SDS011;40226;50.874;4.394;2022-08-25T04:00:40;9.57;;;7.03;;
23596;SDS011;40226;50.874;4.394;2022-08-25T04:03:06;9.73;;;7.00;;
23596;SDS011;40226;50.874;4.394;2022-08-25T04:05:32;9.23;;;6.45;;
23596;SDS011;40226;50.874;4.394;2022-08-25T04:07:58;9.45;;;6.68;;
23596;SDS011;40226;50.874;4.394;2022-08-25T04:10:25;11.90;;;7.25;;
23596;SDS011;40226;50.874;4.394;2022-08-25T04:12:51;11.63;;;7.13;;
23596;SDS011;40226;50.874;4.394;2022-08-25T04:15:16;11.00;;;6.60;;
23596;SDS011;40226;50.874;4.394;2022-08-25T04:17:42;7.20;;;6.10;;
23596;SDS011;40226;50.874;4.394;2022-08-25T04:20:09;12.85;;;6.50;;
23596;SDS011;40226;50.874;4.394;2022-08-25T04:22:35;10.77;;;6.30;;
23596;SDS011;40226;50.874;4.394;2022-08-25T04:25:02;12.45;;;6.57;;
23596;SDS011;40226;50.874;4.394;2022-08-25T04:27:29;11.25;;;6.82;;
23596;SDS011;40226;50.874;4.394;2022-08-25T04:29:55;13.77;;;6.50;;
23596;SDS011;40226;50.874;4.394;2022-08-25T04:32:20;10.18;;;6.85;;
23596;SDS011;40226;50.874;4.394;2022-08-25T04:34:46;15.82;;;6.82;;
23596;SDS011;40226;50.874;4.394;2022-08-25T04:37:13;10.07;;;6.35;;
23596;SDS011;40226;50.874;4.394;2022-08-25T04:39:38;12.02;;;6.60;;
23596;SDS011;40226;50.874;4.394;2022-08-25T04:42:04;10.82;;;6.20;;
23596;SDS011;40226;50.874;4.394;2022-08-25T04:44:30;11.70;;;6.40;;
23596;SDS011;40226;50.874;4.394;2022-08-25T04:46:56;11.45;;;6.07;;
23596;SDS011;40226;50.874;4.394;2022-08-25T04:49:22;9.98;;;6.07;;
23596;SDS011;40226;50.874;4.394;2022-08-25T04:51:47;17.85;;;7.45;;
23596;SDS011;40226;50.874;4.394;2022-08-25T04:54:13;16.38;;;7.22;;
23596;SDS011;40226;50.874;4.394;2022-08-25T04:56:46;12.10;;;6.82;;
23596;SDS011;40226;50.874;4.394;2022-08-25T04:59:13;12.82;;;7.28;;
23596;SDS011;40226;50.874;4.394;2022-08-25T05:01:41;14.15;;;6.97;;
23596;SDS011;40226;50.874;4.394;2022-08-25T05:04:09;13.73;;;6.45;;
23596;SDS011;40226;50.874;4.394;2022-08-25T05:06:35;11.25;;;6.25;;
23596;SDS011;40226;50.874;4.394;2022-08-25T05:09:02;11.35;;;5.85;;
23596;SDS011;40226;50.874;4.394;2022-08-25T05:11:28;9.95;;;6.20;;
23596;SDS011;40226;50.874;4.394;2022-08-25T05:13:56;8.07;;;5.90;;
23596;SDS011;40226;50.874;4.394;2022-08-25T05:16:23;9.55;;;5.85;;
23596;SDS011;40226;50.874;4.394;2022-08-25T05:18:50;9.45;;;5.50;;
23596;SDS011;40226;50.874;4.394;2022-08-25T05:21:17;12.65;;;6.03;;
23596;SDS011;40226;50.874;4.394;2022-08-25T05:23:45;14.57;;;6.45;;
23596;SDS011;40226;50.874;4.394;2022-08-25T05:26:12;9.90;;;5.70;;
23596;SDS011;40226;50.874;4.394;2022-08-25T05:28:40;10.60;;;5.88;;
23596;SDS011;40226;50.874;4.394;2022-08-25T05:31:07;8.23;;;4.82;;
23596;SDS011;40226;50.874;4.394;2022-08-25T05:33:35;8.93;;;5.57;;
23596;SDS011;40226;50.874;4.394;2022-08-25T05:36:02;9.52;;;5.18;;
23596;SDS011;40226;50.874;4.394;2022-08-25T05:38:28;8.95;;;5.13;;
23596;SDS011;40226;50.874;4.394;2022-08-25T05:40:58;7.05;;;4.63;;
23596;SDS011;40226;50.874;4.394;2022-08-25T05:43:26;7.82;;;5.03;;
23596;SDS011;40226;50.874;4.394;2022-08-25T05:45:53;10.55;;;4.68;;
23596;SDS011;40226;50.874;4.394;2022-08-25T05:48:19;8.15;;;5.15;;
23596;SDS011;40226;50.874;4.394;2022-08-25T05:50:52;13.25;;;5.00;;
23596;SDS011;40226;50.874;4.394;2022-08-25T05:53:24;10.00;;;5.10;;
23596;SDS011;40226;50.874;4.394;2022-08-25T05:55:51;9.25;;;5.00;;
23596;SDS011;40226;50.874;4.394;2022-08-25T05:58:19;11.32;;;4.95;;
23596;SDS011;40226;50.874;4.394;2022-08-25T06:00:45;11.20;;;5.00;;
23596;SDS011;40226;50.874;4.394;2022-08-25T06:03:11;8.35;;;4.88;;
23596;SDS011;40226;50.874;4.394;2022-08-25T06:05:36;7.78;;;5.25;;
23596;SDS011;40226;50.874;4.394;2022-08-25T06:08:02;8.30;;;4.90;;
23596;SDS011;40226;50.874;4.394;2022-08-25T06:10:28;12.88;;;5.25;;
23596;SDS011;40226;50.874;4.394;2022-08-25T06:12:54;9.70;;;5.22;;
23596;SDS011;40226;50.874;4.394;2022-08-25T06:15:20;9.02;;;4.90;;
23596;SDS011;40226;50.874;4.394;2022-08-25T06:17:47;7.18;;;4.75;;
23596;SDS011;40226;50.874;4.394;2022-08-25T06:20:17;9.93;;;4.97;;
23596;SDS011;40226;50.874;4.394;2022-08-25T06:22:44;7.60;;;4.50;;
23596;SDS011;40226;50.874;4.394;2022-08-25T06:25:11;11.02;;;5.07;;
23596;SDS011;40226;50.874;4.394;2022-08-25T06:27:38;12.45;;;5.20;;
23596;SDS011;40226;50.874;4.394;2022-08-25T06:30:05;9.30;;;4.70;;
23596;SDS011;40226;50.874;4.394;2022-08-25T06:32:34;9.75;;;4.60;;
23596;SDS011;40226;50.874;4.394;2022-08-25T06:35:01;10.77;;;4.70;;
23596;SDS011;40226;50.874;4.394;2022-08-25T06:37:28;10.40;;;4.53;;
23596;SDS011;40226;50.874;4.394;2022-08-25T06:39:53;15.75;;;4.68;;
23596;SDS011;40226;50.874;4.394;2022-08-25T06:42:20;6.18;;;4.38;;
23596;SDS011;40226;50.874;4.394;2022-08-25T06:44:45;9.23;;;4.82;;
23596;SDS011;40226;50.874;4.394;2022-08-25T06:47:11;7.95;;;4.18;;
23596;SDS011;40226;50.874;4.394;2022-08-25T06:49:36;9.85;;;4.78;;
23596;SDS011;40226;50.874;4.394;2022-08-25T06:52:02;11.23;;;4.57;;
23596;SDS011;40226;50.874;4.394;2022-08-25T06:54:28;8.50;;;4.45;;
23596;SDS011;40226;50.874;4.394;2022-08-25T06:56:53;10.73;;;4.40;;
23596;SDS011;40226;50.874;4.394;2022-08-25T06:59:19;7.80;;;4.20;;
23596;SDS011;40226;50.874;4.394;2022-08-25T07:01:45;10.80;;;4.57;;
23596;SDS011;40226;50.874;4.394;2022-08-25T07:04:11;13.93;;;4.65;;
23596;SDS011;40226;50.874;4.394;2022-08-25T07:06:37;6.65;;;4.00;;
23596;SDS011;40226;50.874;4.394;2022-08-25T07:09:04;7.00;;;4.07;;
23596;SDS011;40226;50.874;4.394;2022-08-25T07:11:30;10.80;;;4.22;;
23596;SDS011;40226;50.874;4.394;2022-08-25T07:13:58;9.27;;;4.45;;
23596;SDS011;40226;50.874;4.394;2022-08-25T07:16:25;8.25;;;4.00;;
23596;SDS011;40226;50.874;4.394;2022-08-25T07:18:51;12.50;;;3.92;;
23596;SDS011;40226;50.874;4.394;2022-08-25T07:21:20;8.13;;;4.55;;
23596;SDS011;40226;50.874;4.394;2022-08-25T07:23:46;8.90;;;4.38;;
23596;SDS011;40226;50.874;4.394;2022-08-25T07:26:13;7.40;;;4.07;;
23596;SDS011;40226;50.874;4.394;2022-08-25T07:28:50;8.02;;;4.35;;
23596;SDS011;40226;50.874;4.394;2022-08-25T07:31:16;8.77;;;4.18;;
23596;SDS011;40226;50.874;4.394;2022-08-25T07:33:41;11.32;;;4.20;;
23596;SDS011;40226;50.874;4.394;2022-08-25T07:36:27;8.23;;;3.80;;
23596;SDS011;40226;50.874;4.394;2022-08-25T07:38:55;10.25;;;4.10;;
23596;SDS011;40226;50.874;4.394;2022-08-25T07:41:21;7.10;;;4.10;;
23596;SDS011;40226;50.874;4.394;2022-08-25T07:43:47;6.03;;;3.95;;
23596;SDS011;40226;50.874;4.394;2022-08-25T07:46:13;6.47;;;3.97;;
23596;SDS011;40226;50.874;4.394;2022-08-25T07:48:38;7.30;;;3.83;;
23596;SDS011;40226;50.874;4.394;2022-08-25T07:51:08;9.13;;;3.90;;
23596;SDS011;40226;50.874;4.394;2022-08-25T07:53:35;8.00;;;3.75;;
23596;SDS011;40226;50.874;4.394;2022-08-25T07:56:01;7.68;;;3.72;;
23596;SDS011;40226;50.874;4.394;2022-08-25T07:58:26;9.38;;;3.60;;
23596;SDS011;40226;50.874;4.394;2022-08-25T08:00:52;9.68;;;3.67;;
23596;SDS011;40226;50.874;4.394;2022-08-25T08:03:18;11.45;;;3.78;;
23596;SDS011;40226;50.874;4.394;2022-08-25T08:05:45;14.00;;;4.15;;
23596;SDS011;40226;50.874;4.394;2022-08-25T08:08:11;7.80;;;3.78;;
23596;SDS011;40226;50.874;4.394;2022-08-25T08:10:38;7.90;;;4.63;;
23596;SDS011;40226;50.874;4.394;2022-08-25T08:13:04;10.85;;;4.03;;
23596;SDS011;40226;50.874;4.394;2022-08-25T08:15:30;6.07;;;3.67;;
23596;SDS011;40226;50.874;4.394;2022-08-25T08:17:57;9.68;;;3.70;;
23596;SDS011;40226;50.874;4.394;2022-08-25T08:20:24;6.85;;;3.55;;
23596;SDS011;40226;50.874;4.394;2022-08-25T08:22:50;8.65;;;3.70;;
23596;SDS011;40226;50.874;4.394;2022-08-25T08:25:15;12.57;;;4.22;;
23596;SDS011;40226;50.874;4.394;2022-08-25T08:27:41;10.45;;;3.75;;
23596;SDS011;40226;50.874;4.394;2022-08-25T08:30:07;6.95;;;3.83;;
23596;SDS011;40226;50.874;4.394;2022-08-25T08:32:33;7.88;;;3.85;;
23596;SDS011;40226;50.874;4.394;2022-08-25T08:34:59;6.22;;;3.83;;
23596;SDS011;40226;50.874;4.394;2022-08-25T08:37:25;8.13;;;3.90;;
23596;SDS011;40226;50.874;4.394;2022-08-25T08:39:52;7.80;;;3.33;;
23596;SDS011;40226;50.874;4.394;2022-08-25T08:42:21;8.25;;;3.70;;
23596;SDS011;40226;50.874;4.394;2022-08-25T08:44:53;8.43;;;4.10;;
23596;SDS011;40226;50.874;4.394;2022-08-25T08:47:36;5.68;;;3.38;;
23596;SDS011;40226;50.874;4.394;2022-08-25T08:53:01;7.40;;;3.22;;
23596;SDS011;40226;50.874;4.394;2022-08-25T08:55:43;8.43;;;3.30;;
23596;SDS011;40226;50.874;4.394;2022-08-25T08:58:23;7.53;;;3.70;;
23596;SDS011;40226;50.874;4.394;2022-08-25T09:01:03;9.27;;;3.50;;
23596;SDS011;40226;50.874;4.394;2022-08-25T09:03:32;11.05;;;3.85;;
23596;SDS011;40226;50.874;4.394;2022-08-25T09:06:04;9.95;;;3.60;;
23596;SDS011;40226;50.874;4.394;2022-08-25T09:08:42;8.43;;;3.47;;
23596;SDS011;40226;50.874;4.394;2022-08-25T09:11:12;9.50;;;3.72;;
23596;SDS011;40226;50.874;4.394;2022-08-25T09:19:44;8.60;;;3.63;;
23596;SDS011;40226;50.874;4.394;2022-08-25T09:25:27;9.77;;;5.78;;
23596;SDS011;40226;50.874;4.394;2022-08-25T09:28:12;7.55;;;3.17;;
23596;SDS011;40226;50.874;4.394;2022-08-25T09:33:37;5.80;;;3.13;;
23596;SDS011;40226;50.874;4.394;2022-08-25T09:36:03;8.60;;;3.20;;
23596;SDS011;40226;50.874;4.394;2022-08-25T09:38:29;5.80;;;3.00;;
23596;SDS011;40226;50.874;4.394;2022-08-25T09:40:57;4.68;;;2.97;;
23596;SDS011;40226;50.874;4.394;2022-08-25T09:50:50;5.63;;;2.92;;
23596;SDS011;40226;50.874;4.394;2022-08-25T09:53:18;5.00;;;3.15;;
23596;SDS011;40226;50.874;4.394;2022-08-25T09:55:45;6.65;;;2.72;;
23596;SDS011;40226;50.874;4.394;2022-08-25T09:58:30;3.60;;;2.90;;
23596;SDS011;40226;50.874;4.394;2022-08-25T10:01:04;6.32;;;3.00;;
23596;SDS011;40226;50.874;4.394;2022-08-25T10:04:00;3.03;;;2.60;;
23596;SDS011;40226;50.874;4.394;2022-08-25T10:06:49;10.30;;;3.08;;
23596;SDS011;40226;50.874;4.394;2022-08-25T10:09:32;5.70;;;2.80;;
23596;SDS011;40226;50.874;4.394;2022-08-25T10:12:13;5.93;;;2.90;;
23596;SDS011;40226;50.874;4.394;2022-08-25T10:14:59;3.65;;;3.00;;
23596;SDS011;40226;50.874;4.394;2022-08-25T10:18:22;5.88;;;2.92;;
23596;SDS011;40226;50.874;4.394;2022-08-25T10:23:54;7.90;;;2.97;;
23596;SDS011;40226;50.874;4.394;2022-08-25T10:29:29;4.80;;;2.88;;
23596;SDS011;40226;50.874;4.394;2022-08-25T10:32:15;7.60;;;3.00;;
23596;SDS011;40226;50.874;4.394;2022-08-25T10:34:58;7.30;;;2.83;;
23596;SDS011;40226;50.874;4.394;2022-08-25T10:45:18;6.60;;;2.90;;
23596;SDS011;40226;50.874;4.394;2022-08-25T10:50:55;8.63;;;3.10;;
23596;SDS011;40226;50.874;4.394;2022-08-25T11:01:44;4.30;;;2.72;;
23596;SDS011;40226;50.874;4.394;2022-08-25T11:04:12;4.60;;;2.75;;
23596;SDS011;40226;50.874;4.394;2022-08-25T11:06:56;7.50;;;2.78;;
23596;SDS011;40226;50.874;4.394;2022-08-25T11:09:28;4.88;;;2.78;;
23596;SDS011;40226;50.874;4.394;2022-08-25T11:11:58;6.88;;;2.80;;
23596;SDS011;40226;50.874;4.394;2022-08-25T11:14:31;5.40;;;2.65;;
23596;SDS011;40226;50.874;4.394;2022-08-25T11:17:11;5.25;;;2.70;;
23596;SDS011;40226;50.874;4.394;2022-08-25T11:19:42;4.55;;;2.50;;
23596;SDS011;40226;50.874;4.394;2022-08-25T11:22:23;3.88;;;2.35;;
23596;SDS011;40226;50.874;4.394;2022-08-25T11:27:34;4.45;;;2.30;;
23596;SDS011;40226;50.874;4.394;2022-08-25T11:30:08;6.03;;;2.50;;
23596;SDS011;40226;50.874;4.394;2022-08-25T11:32:36;5.05;;;2.50;;
23596;SDS011;40226;50.874;4.394;2022-08-25T11:35:07;3.83;;;2.17;;
23596;SDS011;40226;50.874;4.394;2022-08-25T11:37:37;6.03;;;2.63;;
23596;SDS011;40226;50.874;4.394;2022-08-25T11:45:28;9.00;;;2.67;;
23596;SDS011;40226;50.874;4.394;2022-08-25T11:48:17;4.68;;;2.60;;
23596;SDS011;40226;50.874;4.394;2022-08-25T11:50:56;4.60;;;2.65;;
23596;SDS011;40226;50.874;4.394;2022-08-25T11:53:37;5.57;;;2.67;;
23596;SDS011;40226;50.874;4.394;2022-08-25T11:56:49;4.95;;;2.67;;
23596;SDS011;40226;50.874;4.394;2022-08-25T11:58:58;4.13;;;2.40;;
23596;SDS011;40226;50.874;4.394;2022-08-25T12:04:11;4.10;;;2.65;;
23596;SDS011;40226;50.874;4.394;2022-08-25T12:07:15;3.83;;;2.60;;
23596;SDS011;40226;50.874;4.394;2022-08-25T12:09:30;5.65;;;2.70;;
23596;SDS011;40226;50.874;4.394;2022-08-25T12:17:43;4.90;;;2.42;;
23596;SDS011;40226;50.874;4.394;2022-08-25T12:20:08;4.35;;;2.50;;
23596;SDS011;40226;50.874;4.394;2022-08-25T12:25:04;3.75;;;2.28;;
23596;SDS011;40226;50.874;4.394;2022-08-25T12:27:44;5.63;;;2.42;;
23596;SDS011;40226;50.874;4.394;2022-08-25T12:31:07;5.07;;;2.30;;
23596;SDS011;40226;50.874;4.394;2022-08-25T12:36:30;3.17;;;2.50;;
23596;SDS011;40226;50.874;4.394;2022-08-25T12:39:08;5.28;;;2.47;;
23596;SDS011;40226;50.874;4.394;2022-08-25T12:41:51;6.00;;;2.47;;
23596;SDS011;40226;50.874;4.394;2022-08-25T12:44:36;2.75;;;2.42;;
23596;SDS011;40226;50.874;4.394;2022-08-25T12:47:13;5.30;;;2.42;;
23596;SDS011;40226;50.874;4.394;2022-08-25T12:49:48;3.17;;;2.40;;
23596;SDS011;40226;50.874;4.394;2022-08-25T12:52:17;5.78;;;2.67;;
23596;SDS011;40226;50.874;4.394;2022-08-25T13:00:26;5.38;;;3.03;;
23596;SDS011;40226;50.874;4.394;2022-08-25T13:11:22;4.07;;;2.70;;
23596;SDS011;40226;50.874;4.394;2022-08-25T13:14:11;4.15;;;2.58;;
23596;SDS011;40226;50.874;4.394;2022-08-25T13:16:52;4.03;;;2.33;;
23596;SDS011;40226;50.874;4.394;2022-08-25T13:19:20;5.03;;;3.30;;
23596;SDS011;40226;50.874;4.394;2022-08-25T13:21:46;4.82;;;2.40;;
23596;SDS011;40226;50.874;4.394;2022-08-25T13:26:58;2.95;;;2.50;;
23596;SDS011;40226;50.874;4.394;2022-08-25T13:29:28;4.13;;;1.98;;
23596;SDS011;40226;50.874;4.394;2022-08-25T13:34:33;3.38;;;2.08;;
23596;SDS011;40226;50.874;4.394;2022-08-25T13:37:04;2.80;;;2.45;;
23596;SDS011;40226;50.874;4.394;2022-08-25T13:40:05;5.25;;;2.78;;
23596;SDS011;40226;50.874;4.394;2022-08-25T13:42:33;3.58;;;2.47;;
23596;SDS011;40226;50.874;4.394;2022-08-25T13:45:00;9.23;;;2.90;;
23596;SDS011;40226;50.874;4.394;2022-08-25T13:47:33;4.63;;;2.50;;
23596;SDS011;40226;50.874;4.394;2022-08-25T13:50:18;3.10;;;2.42;;
23596;SDS011;40226;50.874;4.394;2022-08-25T13:52:52;3.88;;;2.67;;
23596;SDS011;40226;50.874;4.394;2022-08-25T13:55:36;4.22;;;3.00;;
23596;SDS011;40226;50.874;4.394;2022-08-25T13:58:03;3.92;;;3.08;;
23596;SDS011;40226;50.874;4.394;2022-08-25T14:00:31;17.77;;;5.22;;
23596;SDS011;40226;50.874;4.394;2022-08-25T14:03:01;16.80;;;6.57;;
23596;SDS011;40226;50.874;4.394;2022-08-25T14:05:41;10.00;;;5.97;;
23596;SDS011;40226;50.874;4.394;2022-08-25T14:11:05;13.15;;;6.25;;
23596;SDS011;40226;50.874;4.394;2022-08-25T14:13:37;17.50;;;6.93;;
23596;SDS011;40226;50.874;4.394;2022-08-25T14:16:06;16.23;;;7.13;;
23596;SDS011;40226;50.874;4.394;2022-08-25T14:18:32;20.20;;;6.07;;
23596;SDS011;40226;50.874;4.394;2022-08-25T14:20:57;16.08;;;6.07;;
23596;SDS011;40226;50.874;4.394;2022-08-25T14:23:26;10.00;;;5.90;;
23596;SDS011;40226;50.874;4.394;2022-08-25T14:25:55;22.75;;;6.18;;
23596;SDS011;40226;50.874;4.394;2022-08-25T14:28:22;11.73;;;6.40;;
23596;SDS011;40226;50.874;4.394;2022-08-25T14:31:11;12.55;;;5.78;;
23596;SDS011;40226;50.874;4.394;2022-08-25T14:33:48;11.90;;;4.80;;
23596;SDS011;40226;50.874;4.394;2022-08-25T14:36:20;9.02;;;5.28;;
23596;SDS011;40226;50.874;4.394;2022-08-25T14:38:49;11.20;;;5.43;;
23596;SDS011;40226;50.874;4.394;2022-08-25T14:41:23;12.65;;;5.00;;
23596;SDS011;40226;50.874;4.394;2022-08-25T14:43:49;8.63;;;5.05;;
23596;SDS011;40226;50.874;4.394;2022-08-25T14:46:20;7.28;;;4.60;;
23596;SDS011;40226;50.874;4.394;2022-08-25T14:48:50;9.27;;;4.95;;
23596;SDS011;40226;50.874;4.394;2022-08-25T14:51:19;9.32;;;4.47;;
23596;SDS011;40226;50.874;4.394;2022-08-25T14:53:47;7.53;;;4.70;;
23596;SDS011;40226;50.874;4.394;2022-08-25T14:56:13;6.18;;;4.60;;
23596;SDS011;40226;50.874;4.394;2022-08-25T14:58:39;13.57;;;5.10;;
23596;SDS011;40226;50.874;4.394;2022-08-25T15:01:05;8.57;;;4.38;;
23596;SDS011;40226;50.874;4.394;2022-08-25T15:03:32;7.20;;;4.35;;
23596;SDS011;40226;50.874;4.394;2022-08-25T15:06:03;9.48;;;4.85;;
23596;SDS011;40226;50.874;4.394;2022-08-25T15:08:29;13.23;;;4.40;;
23596;SDS011;40226;50.874;4.394;2022-08-25T15:11:14;9.90;;;4.20;;
23596;SDS011;40226;50.874;4.394;2022-08-25T15:13:40;10.88;;;5.90;;
23596;SDS011;40226;50.874;4.394;2022-08-25T15:16:07;10.23;;;6.30;;
23596;SDS011;40226;50.874;4.394;2022-08-25T15:18:34;10.80;;;6.05;;
23596;SDS011;40226;50.874;4.394;2022-08-25T15:21:00;9.75;;;5.85;;
23596;SDS011;40226;50.874;4.394;2022-08-25T15:23:26;9.23;;;6.80;;
23596;SDS011;40226;50.874;4.394;2022-08-25T15:25:52;13.65;;;7.47;;
23596;SDS011;40226;50.874;4.394;2022-08-25T15:28:20;14.30;;;8.15;;
23596;SDS011;40226;50.874;4.394;2022-08-25T15:30:46;12.75;;;9.70;;
23596;SDS011;40226;50.874;4.394;2022-08-25T15:33:12;15.05;;;11.57;;
23596;SDS011;40226;50.874;4.394;2022-08-25T15:35:38;16.30;;;10.95;;
23596;SDS011;40226;50.874;4.394;2022-08-25T15:38:04;18.20;;;12.25;;
23596;SDS011;40226;50.874;4.394;2022-08-25T15:40:30;14.77;;;11.48;;
23596;SDS011;40226;50.874;4.394;2022-08-25T15:42:55;16.77;;;11.63;;
23596;SDS011;40226;50.874;4.394;2022-08-25T15:45:21;16.98;;;10.25;;
23596;SDS011;40226;50.874;4.394;2022-08-25T15:47:47;18.23;;;11.15;;
23596;SDS011;40226;50.874;4.394;2022-08-25T15:50:14;12.63;;;9.90;;
23596;SDS011;40226;50.874;4.394;2022-08-25T15:52:43;14.07;;;8.75;;
23596;SDS011;40226;50.874;4.394;2022-08-25T15:55:10;14.80;;;9.95;;
23596;SDS011;40226;50.874;4.394;2022-08-25T15:57:36;16.95;;;9.75;;
23596;SDS011;40226;50.874;4.394;2022-08-25T16:00:04;15.63;;;10.80;;
23596;SDS011;40226;50.874;4.394;2022-08-25T16:02:31;14.00;;;10.90;;
23596;SDS011;40226;50.874;4.394;2022-08-25T16:04:58;21.00;;;13.77;;
23596;SDS011;40226;50.874;4.394;2022-08-25T16:07:25;19.38;;;14.88;;
23596;SDS011;40226;50.874;4.394;2022-08-25T16:09:54;19.38;;;13.32;;
23596;SDS011;40226;50.874;4.394;2022-08-25T16:12:20;22.60;;;16.40;;
23596;SDS011;40226;50.874;4.394;2022-08-25T16:14:46;19.10;;;16.98;;
23596;SDS011;40226;50.874;4.394;2022-08-25T16:17:12;22.42;;;18.25;;
23596;SDS011;40226;50.874;4.394;2022-08-25T16:19:38;27.17;;;18.63;;
23596;SDS011;40226;50.874;4.394;2022-08-25T16:22:04;30.08;;;19.95;;
23596;SDS011;40226;50.874;4.394;2022-08-25T16:24:30;21.25;;;17.90;;
23596;SDS011;40226;50.874;4.394;2022-08-25T16:26:56;28.88;;;19.80;;
23596;SDS011;40226;50.874;4.394;2022-08-25T16:29:29;20.87;;;18.70;;
23596;SDS011;40226;50.874;4.394;2022-08-25T16:32:02;28.40;;;20.17;;